createdAt,value
2018-08-28T00:00:01.949Z,1003.24
2018-08-28T00:05:02.527Z,1003.24
2018-08-28T00:10:01.817Z,1003.23
2018-08-28T00:15:02.315Z,1003.22
2018-08-28T00:20:01.668Z,1003.21
2018-08-28T00:25:01.923Z,1003.2
2018-08-28T00:30:02.249Z,1003.26
2018-08-28T00:35:01.645Z,1003.28
2018-08-28T00:40:01.888Z,1003.3
2018-08-28T00:45:02.196Z,1003.31
2018-08-28T00:50:01.628Z,1003.38
2018-08-28T00:55:02.090Z,1003.38
2018-08-28T01:00:01.570Z,1003.41
2018-08-28T01:05:02.217Z,1003.4
2018-08-28T01:10:01.481Z,1003.52
2018-08-28T01:15:01.713Z,1003.55
2018-08-28T01:20:02.097Z,1003.54
2018-08-28T01:25:01.406Z,1003.57
2018-08-28T01:30:01.689Z,1003.53
2018-08-28T01:35:02.199Z,1003.53
2018-08-28T01:40:01.451Z,1003.53
2018-08-28T01:45:01.791Z,1003.49
2018-08-28T01:50:02.259Z,1003.51
2018-08-28T01:55:01.593Z,1003.52
2018-08-28T02:00:01.916Z,1003.46
2018-08-28T02:05:02.444Z,1003.43
2018-08-28T02:10:01.719Z,1003.39
2018-08-28T02:15:02.019Z,1003.41
2018-08-28T02:20:01.806Z,1003.4
2018-08-28T02:25:02.325Z,1003.41
2018-08-28T02:30:01.782Z,1003.4
2018-08-28T02:35:02.288Z,1003.45
2018-08-28T02:40:02.475Z,1003.5
2018-08-28T02:45:01.768Z,1003.55
2018-08-28T02:50:02.184Z,1003.6
2018-08-28T02:55:01.432Z,1003.58
2018-08-28T03:00:01.765Z,1003.59
2018-08-28T03:05:02.102Z,1003.64
2018-08-28T03:10:01.340Z,1003.67
2018-08-28T03:15:01.642Z,1003.7
2018-08-28T03:20:02.184Z,1003.66
2018-08-28T03:25:01.454Z,1003.7
2018-08-28T03:30:01.717Z,1003.73
2018-08-28T03:35:02.143Z,1003.78
2018-08-28T03:40:01.385Z,1003.79
2018-08-28T03:45:01.633Z,1003.8
2018-08-28T03:50:02.041Z,1003.88
2018-08-28T03:55:01.303Z,1003.88
2018-08-28T04:00:01.566Z,1003.95
2018-08-28T04:05:01.987Z,1003.96
2018-08-28T04:10:01.236Z,1003.93
2018-08-28T04:15:01.527Z,1003.97
2018-08-28T04:20:02.049Z,1003.98
2018-08-28T04:25:01.354Z,1003.99
2018-08-28T04:30:01.633Z,1003.98
2018-08-28T04:35:02.114Z,1004.03
2018-08-28T04:40:01.423Z,1004.02
2018-08-28T04:45:01.747Z,1004.11
2018-08-28T04:50:02.209Z,1004.09
2018-08-28T04:55:01.984Z,1004.13
2018-08-28T05:00:01.311Z,1004.16
2018-08-28T05:05:01.659Z,1004.21
2018-08-28T05:10:01.925Z,1004.19
2018-08-28T05:15:02.211Z,1004.22
2018-08-28T05:20:01.500Z,1004.21
2018-08-28T05:25:01.829Z,1004.25
2018-08-28T05:30:02.125Z,1004.28
2018-08-28T05:35:01.395Z,1004.3
2018-08-28T05:40:01.671Z,1004.36
2018-08-28T05:45:01.910Z,1004.34
2018-08-28T05:50:02.329Z,1004.41
2018-08-28T05:55:01.667Z,1004.37
2018-08-28T06:00:01.983Z,1004.54
2018-08-28T06:05:01.290Z,1004.52
2018-08-28T06:10:01.573Z,1004.66
2018-08-28T06:15:01.875Z,1004.63
2018-08-28T06:20:02.472Z,1004.62
2018-08-28T06:25:01.754Z,1004.64
2018-08-28T06:30:02.037Z,1004.66
2018-08-28T06:35:01.311Z,1004.73
2018-08-28T06:40:01.685Z,1004.72
2018-08-28T06:45:01.958Z,1004.71
2018-08-28T06:50:02.390Z,1004.77
2018-08-28T06:55:01.645Z,1004.74
2018-08-28T07:00:02.031Z,1004.82
2018-08-28T07:05:01.292Z,1004.77
2018-08-28T07:10:01.590Z,1004.85
2018-08-28T07:15:01.886Z,1004.75
2018-08-28T07:20:02.336Z,1004.78
2018-08-28T07:25:01.739Z,1004.8
2018-08-28T07:30:01.987Z,1004.79
2018-08-28T07:35:01.265Z,1004.81
2018-08-28T07:40:01.530Z,1004.88
2018-08-28T07:45:01.853Z,1004.83
2018-08-28T07:50:02.312Z,1004.84
2018-08-28T07:55:01.705Z,1004.95
2018-08-28T08:00:01.937Z,1004.9
2018-08-28T08:05:02.390Z,1005
2018-08-28T08:10:01.744Z,1005.08
2018-08-28T08:15:01.979Z,1005.01
2018-08-28T08:20:01.282Z,1005.05
2018-08-28T08:25:01.607Z,1005.07
2018-08-28T08:30:01.907Z,1005.04
2018-08-28T08:35:02.426Z,1005.08
2018-08-28T08:40:01.810Z,1005.1
2018-08-28T08:45:02.178Z,1005.05
2018-08-28T08:50:01.453Z,1005.08
2018-08-28T08:55:02.199Z,1005.13
2018-08-28T09:00:01.588Z,1005.15
2018-08-28T09:05:02.078Z,1005.12
2018-08-28T09:10:01.387Z,1005.04
2018-08-28T09:15:01.744Z,1005.04
2018-08-28T09:20:02.005Z,1004.92
2018-08-28T09:25:01.230Z,1004.93
2018-08-28T09:30:01.501Z,1004.97
2018-08-28T09:35:02.042Z,1004.92
2018-08-28T09:40:01.299Z,1004.85
2018-08-28T09:45:01.692Z,1004.81
2018-08-28T09:50:02.068Z,1004.77
2018-08-28T09:55:01.314Z,1004.76
2018-08-28T10:00:01.573Z,1004.71
2018-08-28T10:05:02.043Z,1004.71
2018-08-28T10:10:01.309Z,1004.69
2018-08-28T10:15:01.670Z,1004.59
2018-08-28T10:20:01.943Z,1004.53
2018-08-28T10:25:02.303Z,1004.45
2018-08-28T10:30:01.758Z,1004.4
2018-08-28T10:35:02.169Z,1004.37
2018-08-28T10:40:01.481Z,1004.24
2018-08-28T10:45:01.723Z,1004.25
2018-08-28T10:50:02.226Z,1004.26
2018-08-28T10:55:01.516Z,1004.18
2018-08-28T11:00:01.786Z,1004.08
2018-08-28T11:05:02.327Z,1004.12
2018-08-28T11:10:01.563Z,1004.06
2018-08-28T11:15:01.963Z,1003.98
2018-08-28T11:20:01.311Z,1003.95
2018-08-28T11:25:01.696Z,1003.98
2018-08-28T11:30:01.988Z,1003.97
2018-08-28T11:35:01.280Z,1003.95
2018-08-28T11:40:01.554Z,1003.94
2018-08-28T11:45:01.803Z,1003.89
2018-08-28T11:50:02.093Z,1003.79
2018-08-28T11:55:01.371Z,1003.81
2018-08-28T12:00:01.629Z,1003.82
2018-08-28T12:05:02.359Z,1003.79
2018-08-28T12:10:01.663Z,1003.72
2018-08-28T12:15:01.905Z,1003.75
2018-08-28T12:20:02.183Z,1003.66
2018-08-28T12:25:01.409Z,1003.6
2018-08-28T12:30:01.637Z,1003.55
2018-08-28T12:35:01.885Z,1003.48
2018-08-28T12:40:02.156Z,1003.43
2018-08-28T12:45:01.377Z,1003.32
2018-08-28T12:50:01.657Z,1003.27
2018-08-28T12:55:02.347Z,1003.25
2018-08-28T13:00:01.669Z,1003.09
2018-08-28T13:05:01.935Z,1003.1
2018-08-28T13:10:02.170Z,1002.96
2018-08-28T13:15:01.398Z,1002.96
2018-08-28T13:20:02.241Z,1002.81
2018-08-28T13:25:01.508Z,1002.72
2018-08-28T13:30:01.745Z,1002.67
2018-08-28T13:35:01.986Z,1002.65
2018-08-28T13:40:01.229Z,1002.59
2018-08-28T13:45:01.512Z,1002.61
2018-08-28T13:50:01.893Z,1002.59
2018-08-28T13:55:02.124Z,1002.51
2018-08-28T14:00:01.800Z,1002.55
2018-08-28T14:05:02.091Z,1002.45
2018-08-28T14:10:01.318Z,1002.33
2018-08-28T14:15:02.155Z,1002.29
2018-08-28T14:20:01.581Z,1002.35
2018-08-28T14:25:01.832Z,1002.35
2018-08-28T14:30:02.067Z,1002.27
2018-08-28T14:35:01.326Z,1002.21
2018-08-28T14:40:01.586Z,1002.18
2018-08-28T14:45:01.859Z,1002.12
2018-08-28T14:50:02.628Z,1002.1
2018-08-28T14:55:02.097Z,1002.05
2018-08-28T15:00:01.345Z,1001.97
2018-08-28T15:05:01.676Z,1001.92
2018-08-28T15:10:01.926Z,1001.89
2018-08-28T15:15:02.165Z,1001.83
2018-08-28T15:20:01.433Z,1001.82
2018-08-28T15:25:01.678Z,1001.73
2018-08-28T15:30:01.974Z,1001.82
2018-08-28T15:35:01.235Z,1001.72
2018-08-28T15:40:01.513Z,1001.7
2018-08-28T15:45:01.780Z,1001.72
2018-08-28T15:50:02.031Z,1001.67
2018-08-28T15:55:01.252Z,1001.61
2018-08-28T16:00:01.489Z,1001.65
2018-08-28T16:05:01.750Z,1001.56
2018-08-28T16:10:01.973Z,1001.52
2018-08-28T16:15:02.200Z,1001.47
2018-08-28T16:20:01.462Z,1001.42
2018-08-28T16:25:01.736Z,1001.4
2018-08-28T16:30:01.974Z,1001.38
2018-08-28T16:35:01.227Z,1001.31
2018-08-28T16:40:01.463Z,1001.28
2018-08-28T16:45:01.722Z,1001.23
2018-08-28T16:50:02.149Z,1001.12
2018-08-28T16:55:01.424Z,1001.03
2018-08-28T17:00:01.680Z,1000.95
2018-08-28T17:05:01.966Z,1000.92
2018-08-28T17:10:02.203Z,1000.96
2018-08-28T17:15:01.775Z,1000.84
2018-08-28T17:20:02.040Z,1000.85
2018-08-28T17:25:01.298Z,1000.81
2018-08-28T17:30:01.535Z,1000.84
2018-08-28T17:35:01.767Z,1000.81
2018-08-28T17:40:02.042Z,1000.76
2018-08-28T17:45:01.339Z,1000.81
2018-08-28T17:50:01.558Z,1000.7
2018-08-28T17:55:01.778Z,1000.76
2018-08-28T18:00:02.013Z,1000.74
2018-08-28T18:05:01.324Z,1000.79
2018-08-28T18:10:01.553Z,1000.84
2018-08-28T18:15:01.783Z,1000.86
2018-08-28T18:20:02.115Z,1000.82
2018-08-28T18:25:01.389Z,1000.83
2018-08-28T18:30:01.630Z,1000.86
2018-08-28T18:35:01.945Z,1000.81
2018-08-28T18:40:02.167Z,1000.81
2018-08-28T18:45:01.386Z,1000.8
2018-08-28T18:50:01.626Z,1000.84
2018-08-28T18:55:01.854Z,1000.84
2018-08-28T19:00:02.107Z,1000.82
2018-08-28T19:05:01.367Z,1000.82
2018-08-28T19:10:01.626Z,1000.85
2018-08-28T19:15:01.868Z,1000.82
2018-08-28T19:20:02.118Z,1000.86
2018-08-28T19:25:01.357Z,1000.9
2018-08-28T19:30:01.597Z,1000.82
2018-08-28T19:35:02.045Z,1000.79
2018-08-28T19:40:01.296Z,1000.9
2018-08-28T19:45:01.527Z,1000.9
2018-08-28T19:50:01.975Z,1000.91
2018-08-28T19:55:02.213Z,1000.89
2018-08-28T20:00:01.475Z,1000.85
2018-08-28T20:05:01.953Z,1000.84
2018-08-28T20:10:02.247Z,1000.78
2018-08-28T20:15:01.820Z,1000.73
2018-08-28T20:20:02.086Z,1000.73
2018-08-28T20:25:01.342Z,1000.77
2018-08-28T20:30:01.595Z,1000.71
2018-08-28T20:35:02.093Z,1000.71
2018-08-28T20:40:01.349Z,1000.64
2018-08-28T20:45:01.634Z,1000.59
2018-08-28T20:50:02.086Z,1000.5
2018-08-28T20:55:01.329Z,1000.42
2018-08-28T21:00:01.569Z,1000.36
2018-08-28T21:05:02.004Z,1000.42
2018-08-28T21:10:01.241Z,1000.31
2018-08-28T21:15:01.526Z,1000.34
2018-08-28T21:20:01.941Z,1000.38
2018-08-28T21:25:02.245Z,1000.3
2018-08-28T21:30:01.532Z,1000.25
2018-08-28T21:35:01.962Z,1000.25
2018-08-28T21:40:02.227Z,1000.26
2018-08-28T21:45:01.472Z,1000.21
2018-08-28T21:50:01.965Z,1000.23
2018-08-28T21:55:02.226Z,1000.16
2018-08-28T22:00:01.483Z,1000.12
2018-08-28T22:05:01.964Z,1000.12
2018-08-28T22:10:02.219Z,1000.12
2018-08-28T22:15:01.505Z,1000.09
2018-08-28T22:20:01.985Z,1000.1
2018-08-28T22:25:01.271Z,1000.14
2018-08-28T22:30:01.599Z,1000.16
2018-08-28T22:35:02.105Z,1000.15
2018-08-28T22:40:01.334Z,1000.07
2018-08-28T22:45:01.658Z,1000.04
2018-08-28T22:50:02.050Z,999.96
2018-08-28T22:55:01.289Z,1000
2018-08-28T23:00:01.547Z,999.98
2018-08-28T23:05:02.037Z,999.93
2018-08-28T23:10:01.296Z,999.82
2018-08-28T23:15:01.579Z,999.8
2018-08-28T23:20:02.025Z,999.76
2018-08-28T23:25:01.311Z,999.64
2018-08-28T23:30:01.576Z,999.6
2018-08-28T23:35:02.111Z,999.61
2018-08-28T23:40:01.350Z,999.5
2018-08-28T23:45:01.635Z,999.52
2018-08-28T23:50:02.102Z,999.52
2018-08-28T23:55:01.325Z,999.44
